sensor_id;sensor_type;location;lat;lon;timestamp;P1;durP1;ratioP1;P2;durP2;ratioP2
22543;SDS011;11438;52.044;8.716;2022-10-17T00:01:09;1.38;;;1.08;;
22543;SDS011;11438;52.044;8.716;2022-10-17T00:03:36;2.35;;;0.90;;
22543;SDS011;11438;52.044;8.716;2022-10-17T00:06:06;1.17;;;0.90;;
22543;SDS011;11438;52.044;8.716;2022-10-17T00:08:34;2.67;;;1.10;;
22543;SDS011;11438;52.044;8.716;2022-10-17T00:11:05;1.92;;;1.20;;
22543;SDS011;11438;52.044;8.716;2022-10-17T00:13:32;1.60;;;1.00;;
22543;SDS011;11438;52.044;8.716;2022-10-17T00:15:59;2.85;;;1.33;;
22543;SDS011;11438;52.044;8.716;2022-10-17T00:18:24;1.55;;;1.23;;
22543;SDS011;11438;52.044;8.716;2022-10-17T00:20:50;3.00;;;1.38;;
22543;SDS011;11438;52.044;8.716;2022-10-17T00:23:16;2.50;;;1.20;;
22543;SDS011;11438;52.044;8.716;2022-10-17T00:25:42;2.47;;;1.60;;
22543;SDS011;11438;52.044;8.716;2022-10-17T00:28:10;3.05;;;1.20;;
22543;SDS011;11438;52.044;8.716;2022-10-17T00:30:37;3.45;;;1.45;;
22543;SDS011;11438;52.044;8.716;2022-10-17T00:33:03;2.55;;;1.33;;
22543;SDS011;11438;52.044;8.716;2022-10-17T00:35:29;1.30;;;1.10;;
22543;SDS011;11438;52.044;8.716;2022-10-17T00:37:55;2.33;;;1.38;;
22543;SDS011;11438;52.044;8.716;2022-10-17T00:40:20;2.58;;;1.33;;
22543;SDS011;11438;52.044;8.716;2022-10-17T00:42:46;3.15;;;1.20;;
22543;SDS011;11438;52.044;8.716;2022-10-17T00:45:25;1.30;;;1.20;;
22543;SDS011;11438;52.044;8.716;2022-10-17T00:47:55;1.50;;;1.25;;
22543;SDS011;11438;52.044;8.716;2022-10-17T00:50:24;2.10;;;0.95;;
22543;SDS011;11438;52.044;8.716;2022-10-17T00:52:51;2.13;;;1.23;;
22543;SDS011;11438;52.044;8.716;2022-10-17T00:55:19;3.50;;;1.35;;
22543;SDS011;11438;52.044;8.716;2022-10-17T00:57:53;4.82;;;1.40;;
22543;SDS011;11438;52.044;8.716;2022-10-17T01:00:19;1.60;;;1.33;;
22543;SDS011;11438;52.044;8.716;2022-10-17T01:02:45;3.03;;;1.35;;
22543;SDS011;11438;52.044;8.716;2022-10-17T01:05:12;2.53;;;1.30;;
22543;SDS011;11438;52.044;8.716;2022-10-17T01:07:39;2.20;;;1.60;;
22543;SDS011;11438;52.044;8.716;2022-10-17T01:10:07;1.70;;;1.20;;
22543;SDS011;11438;52.044;8.716;2022-10-17T01:12:44;1.70;;;1.40;;
22543;SDS011;11438;52.044;8.716;2022-10-17T01:23:47;2.33;;;1.30;;
22543;SDS011;11438;52.044;8.716;2022-10-17T01:26:25;1.80;;;1.58;;
22543;SDS011;11438;52.044;8.716;2022-10-17T01:29:18;2.35;;;1.58;;
22543;SDS011;11438;52.044;8.716;2022-10-17T01:37:05;1.70;;;1.30;;
22543;SDS011;11438;52.044;8.716;2022-10-17T01:39:41;2.75;;;1.30;;
22543;SDS011;11438;52.044;8.716;2022-10-17T01:42:12;2.15;;;1.60;;
22543;SDS011;11438;52.044;8.716;2022-10-17T01:47:22;2.47;;;1.40;;
22543;SDS011;11438;52.044;8.716;2022-10-17T01:49:52;1.80;;;1.60;;
22543;SDS011;11438;52.044;8.716;2022-10-17T01:53:23;4.00;;;1.63;;
22543;SDS011;11438;52.044;8.716;2022-10-17T01:55:18;3.08;;;1.40;;
22543;SDS011;11438;52.044;8.716;2022-10-17T01:57:52;2.20;;;1.83;;
22543;SDS011;11438;52.044;8.716;2022-10-17T02:00:22;1.98;;;1.67;;
22543;SDS011;11438;52.044;8.716;2022-10-17T02:02:58;2.42;;;1.55;;
22543;SDS011;11438;52.044;8.716;2022-10-17T02:05:28;2.05;;;1.55;;
22543;SDS011;11438;52.044;8.716;2022-10-17T02:07:57;2.10;;;1.60;;
22543;SDS011;11438;52.044;8.716;2022-10-17T02:13:05;1.92;;;1.58;;
22543;SDS011;11438;52.044;8.716;2022-10-17T02:15:52;2.00;;;1.50;;
22543;SDS011;11438;52.044;8.716;2022-10-17T02:21:50;3.55;;;1.83;;
22543;SDS011;11438;52.044;8.716;2022-10-17T02:24:32;4.93;;;1.80;;
22543;SDS011;11438;52.044;8.716;2022-10-17T02:29:47;3.28;;;1.70;;
22543;SDS011;11438;52.044;8.716;2022-10-17T02:32:19;2.40;;;2.00;;
22543;SDS011;11438;52.044;8.716;2022-10-17T02:34:52;2.72;;;1.88;;
22543;SDS011;11438;52.044;8.716;2022-10-17T02:37:21;2.63;;;2.00;;
22543;SDS011;11438;52.044;8.716;2022-10-17T02:39:50;2.28;;;1.80;;
22543;SDS011;11438;52.044;8.716;2022-10-17T02:42:17;2.72;;;2.00;;
22543;SDS011;11438;52.044;8.716;2022-10-17T02:44:45;5.00;;;2.13;;
22543;SDS011;11438;52.044;8.716;2022-10-17T02:49:49;3.10;;;1.75;;
22543;SDS011;11438;52.044;8.716;2022-10-17T02:52:17;1.92;;;1.67;;
22543;SDS011;11438;52.044;8.716;2022-10-17T02:54:52;1.90;;;1.70;;
22543;SDS011;11438;52.044;8.716;2022-10-17T02:57:27;2.42;;;2.00;;
22543;SDS011;11438;52.044;8.716;2022-10-17T02:59:58;4.22;;;1.98;;
22543;SDS011;11438;52.044;8.716;2022-10-17T03:02:26;3.13;;;1.73;;
22543;SDS011;11438;52.044;8.716;2022-10-17T03:04:52;2.00;;;1.77;;
22543;SDS011;11438;52.044;8.716;2022-10-17T03:07:17;4.05;;;2.08;;
22543;SDS011;11438;52.044;8.716;2022-10-17T03:09:43;2.28;;;1.65;;
22543;SDS011;11438;52.044;8.716;2022-10-17T03:12:08;2.25;;;1.95;;
22543;SDS011;11438;52.044;8.716;2022-10-17T03:14:34;2.67;;;2.05;;
22543;SDS011;11438;52.044;8.716;2022-10-17T03:16:59;3.22;;;2.33;;
22543;SDS011;11438;52.044;8.716;2022-10-17T03:19:25;2.00;;;1.60;;
22543;SDS011;11438;52.044;8.716;2022-10-17T03:21:51;2.72;;;1.70;;
22543;SDS011;11438;52.044;8.716;2022-10-17T03:24:16;2.25;;;1.92;;
22543;SDS011;11438;52.044;8.716;2022-10-17T03:26:42;2.15;;;1.85;;
22543;SDS011;11438;52.044;8.716;2022-10-17T03:29:07;2.13;;;1.48;;
22543;SDS011;11438;52.044;8.716;2022-10-17T03:31:33;2.78;;;1.80;;
22543;SDS011;11438;52.044;8.716;2022-10-17T03:34:00;3.40;;;1.73;;
22543;SDS011;11438;52.044;8.716;2022-10-17T03:36:26;2.45;;;1.85;;
22543;SDS011;11438;52.044;8.716;2022-10-17T03:38:54;2.65;;;1.70;;
22543;SDS011;11438;52.044;8.716;2022-10-17T03:41:20;1.90;;;1.52;;
22543;SDS011;11438;52.044;8.716;2022-10-17T03:43:45;1.95;;;1.63;;
22543;SDS011;11438;52.044;8.716;2022-10-17T03:46:11;2.30;;;1.70;;
22543;SDS011;11438;52.044;8.716;2022-10-17T03:48:36;2.92;;;1.77;;
22543;SDS011;11438;52.044;8.716;2022-10-17T03:51:06;2.63;;;2.00;;
22543;SDS011;11438;52.044;8.716;2022-10-17T03:53:33;2.58;;;1.98;;
22543;SDS011;11438;52.044;8.716;2022-10-17T03:56:09;2.45;;;2.15;;
22543;SDS011;11438;52.044;8.716;2022-10-17T03:58:35;2.08;;;1.83;;
22543;SDS011;11438;52.044;8.716;2022-10-17T04:01:04;2.50;;;1.92;;
22543;SDS011;11438;52.044;8.716;2022-10-17T04:03:31;3.22;;;2.10;;
22543;SDS011;11438;52.044;8.716;2022-10-17T04:05:58;2.40;;;1.90;;
22543;SDS011;11438;52.044;8.716;2022-10-17T04:08:24;2.47;;;1.98;;
22543;SDS011;11438;52.044;8.716;2022-10-17T04:10:50;3.30;;;1.90;;
22543;SDS011;11438;52.044;8.716;2022-10-17T04:13:16;4.15;;;1.65;;
22543;SDS011;11438;52.044;8.716;2022-10-17T04:15:41;3.20;;;2.28;;
22543;SDS011;11438;52.044;8.716;2022-10-17T04:18:07;2.90;;;1.98;;
22543;SDS011;11438;52.044;8.716;2022-10-17T04:20:36;1.92;;;1.70;;
22543;SDS011;11438;52.044;8.716;2022-10-17T04:23:01;2.90;;;2.10;;
22543;SDS011;11438;52.044;8.716;2022-10-17T04:25:27;2.88;;;2.25;;
22543;SDS011;11438;52.044;8.716;2022-10-17T04:27:52;4.80;;;2.42;;
22543;SDS011;11438;52.044;8.716;2022-10-17T04:30:18;4.65;;;2.50;;
22543;SDS011;11438;52.044;8.716;2022-10-17T04:32:43;4.63;;;2.72;;
22543;SDS011;11438;52.044;8.716;2022-10-17T04:35:09;3.50;;;2.42;;
22543;SDS011;11438;52.044;8.716;2022-10-17T04:37:34;3.30;;;2.47;;
22543;SDS011;11438;52.044;8.716;2022-10-17T04:40:00;5.00;;;2.72;;
22543;SDS011;11438;52.044;8.716;2022-10-17T04:42:27;3.58;;;2.80;;
22543;SDS011;11438;52.044;8.716;2022-10-17T04:44:53;5.82;;;2.88;;
22543;SDS011;11438;52.044;8.716;2022-10-17T04:47:18;6.25;;;2.58;;
22543;SDS011;11438;52.044;8.716;2022-10-17T04:49:44;2.30;;;2.10;;
22543;SDS011;11438;52.044;8.716;2022-10-17T04:52:09;2.30;;;1.98;;
22543;SDS011;11438;52.044;8.716;2022-10-17T04:54:35;2.97;;;2.45;;
22543;SDS011;11438;52.044;8.716;2022-10-17T04:57:00;3.20;;;1.92;;
22543;SDS011;11438;52.044;8.716;2022-10-17T04:59:27;3.92;;;2.35;;
22543;SDS011;11438;52.044;8.716;2022-10-17T05:01:53;3.70;;;2.30;;
22543;SDS011;11438;52.044;8.716;2022-10-17T05:04:18;2.47;;;1.83;;
22543;SDS011;11438;52.044;8.716;2022-10-17T05:06:44;3.30;;;2.50;;
22543;SDS011;11438;52.044;8.716;2022-10-17T05:09:10;3.08;;;2.20;;
22543;SDS011;11438;52.044;8.716;2022-10-17T05:11:35;4.30;;;2.92;;
22543;SDS011;11438;52.044;8.716;2022-10-17T05:14:01;4.13;;;2.40;;
22543;SDS011;11438;52.044;8.716;2022-10-17T05:16:27;4.93;;;2.72;;
22543;SDS011;11438;52.044;8.716;2022-10-17T05:18:54;4.50;;;2.78;;
22543;SDS011;11438;52.044;8.716;2022-10-17T05:21:21;5.75;;;2.90;;
22543;SDS011;11438;52.044;8.716;2022-10-17T05:23:48;3.33;;;2.40;;
22543;SDS011;11438;52.044;8.716;2022-10-17T05:26:14;2.40;;;2.17;;
22543;SDS011;11438;52.044;8.716;2022-10-17T05:28:40;4.28;;;2.70;;
22543;SDS011;11438;52.044;8.716;2022-10-17T05:31:07;4.70;;;2.90;;
22543;SDS011;11438;52.044;8.716;2022-10-17T05:33:33;4.53;;;3.08;;
22543;SDS011;11438;52.044;8.716;2022-10-17T05:36:00;4.35;;;3.33;;
22543;SDS011;11438;52.044;8.716;2022-10-17T05:38:26;5.80;;;3.03;;
22543;SDS011;11438;52.044;8.716;2022-10-17T05:40:58;4.07;;;2.88;;
22543;SDS011;11438;52.044;8.716;2022-10-17T05:43:28;4.10;;;2.60;;
22543;SDS011;11438;52.044;8.716;2022-10-17T05:45:54;3.53;;;2.55;;
22543;SDS011;11438;52.044;8.716;2022-10-17T05:48:20;4.28;;;2.90;;
22543;SDS011;11438;52.044;8.716;2022-10-17T05:50:47;5.43;;;3.67;;
22543;SDS011;11438;52.044;8.716;2022-10-17T05:53:13;4.00;;;3.08;;
22543;SDS011;11438;52.044;8.716;2022-10-17T05:55:39;4.78;;;2.65;;
22543;SDS011;11438;52.044;8.716;2022-10-17T05:58:04;4.88;;;2.00;;
22543;SDS011;11438;52.044;8.716;2022-10-17T06:00:30;2.13;;;1.90;;
22543;SDS011;11438;52.044;8.716;2022-10-17T06:02:55;3.03;;;2.13;;
22543;SDS011;11438;52.044;8.716;2022-10-17T06:05:21;4.97;;;3.03;;
22543;SDS011;11438;52.044;8.716;2022-10-17T06:07:47;4.18;;;3.05;;
22543;SDS011;11438;52.044;8.716;2022-10-17T06:10:16;6.60;;;2.85;;
22543;SDS011;11438;52.044;8.716;2022-10-17T06:12:43;4.97;;;3.40;;
22543;SDS011;11438;52.044;8.716;2022-10-17T06:15:09;4.82;;;2.45;;
22543;SDS011;11438;52.044;8.716;2022-10-17T06:17:35;4.50;;;2.83;;
22543;SDS011;11438;52.044;8.716;2022-10-17T06:20:00;4.85;;;2.70;;
22543;SDS011;11438;52.044;8.716;2022-10-17T06:22:26;3.97;;;2.58;;
22543;SDS011;11438;52.044;8.716;2022-10-17T06:24:52;4.03;;;2.72;;
22543;SDS011;11438;52.044;8.716;2022-10-17T06:27:18;4.47;;;3.10;;
22543;SDS011;11438;52.044;8.716;2022-10-17T06:29:44;3.20;;;2.75;;
22543;SDS011;11438;52.044;8.716;2022-10-17T06:32:11;5.20;;;2.78;;
22543;SDS011;11438;52.044;8.716;2022-10-17T06:34:36;5.88;;;3.15;;
22543;SDS011;11438;52.044;8.716;2022-10-17T06:37:02;5.18;;;2.95;;
22543;SDS011;11438;52.044;8.716;2022-10-17T06:39:27;3.85;;;2.97;;
22543;SDS011;11438;52.044;8.716;2022-10-17T06:41:58;3.75;;;2.60;;
22543;SDS011;11438;52.044;8.716;2022-10-17T06:44:24;4.47;;;3.15;;
22543;SDS011;11438;52.044;8.716;2022-10-17T06:46:54;5.60;;;2.70;;
22543;SDS011;11438;52.044;8.716;2022-10-17T06:49:20;4.32;;;2.80;;
22543;SDS011;11438;52.044;8.716;2022-10-17T06:51:45;3.72;;;2.80;;
22543;SDS011;11438;52.044;8.716;2022-10-17T06:54:11;4.88;;;2.80;;
22543;SDS011;11438;52.044;8.716;2022-10-17T06:56:36;5.13;;;2.88;;
22543;SDS011;11438;52.044;8.716;2022-10-17T06:59:02;5.65;;;2.78;;
22543;SDS011;11438;52.044;8.716;2022-10-17T07:01:29;3.50;;;3.00;;
22543;SDS011;11438;52.044;8.716;2022-10-17T07:03:55;3.33;;;2.60;;
22543;SDS011;11438;52.044;8.716;2022-10-17T07:06:21;3.90;;;2.53;;
22543;SDS011;11438;52.044;8.716;2022-10-17T07:08:48;5.55;;;2.40;;
22543;SDS011;11438;52.044;8.716;2022-10-17T07:11:15;3.97;;;2.33;;
22543;SDS011;11438;52.044;8.716;2022-10-17T07:13:42;4.05;;;2.58;;
22543;SDS011;11438;52.044;8.716;2022-10-17T07:16:08;3.65;;;2.80;;
22543;SDS011;11438;52.044;8.716;2022-10-17T07:18:34;3.03;;;2.35;;
22543;SDS011;11438;52.044;8.716;2022-10-17T07:21:00;3.47;;;2.60;;
22543;SDS011;11438;52.044;8.716;2022-10-17T07:23:26;6.45;;;2.38;;
22543;SDS011;11438;52.044;8.716;2022-10-17T07:25:52;3.03;;;2.42;;
22543;SDS011;11438;52.044;8.716;2022-10-17T07:28:23;4.75;;;2.60;;
22543;SDS011;11438;52.044;8.716;2022-10-17T07:30:48;2.78;;;2.50;;
22543;SDS011;11438;52.044;8.716;2022-10-17T07:33:14;3.78;;;2.45;;
22543;SDS011;11438;52.044;8.716;2022-10-17T07:35:39;4.90;;;2.42;;
22543;SDS011;11438;52.044;8.716;2022-10-17T07:38:05;3.85;;;2.35;;
22543;SDS011;11438;52.044;8.716;2022-10-17T07:40:31;4.53;;;2.65;;
22543;SDS011;11438;52.044;8.716;2022-10-17T07:42:56;3.50;;;2.60;;
22543;SDS011;11438;52.044;8.716;2022-10-17T07:45:22;3.50;;;2.38;;
22543;SDS011;11438;52.044;8.716;2022-10-17T07:47:47;2.47;;;2.22;;
22543;SDS011;11438;52.044;8.716;2022-10-17T07:50:13;3.72;;;2.35;;
22543;SDS011;11438;52.044;8.716;2022-10-17T07:52:39;4.35;;;2.40;;
22543;SDS011;11438;52.044;8.716;2022-10-17T07:55:07;3.20;;;2.50;;
22543;SDS011;11438;52.044;8.716;2022-10-17T07:57:33;3.17;;;2.58;;
22543;SDS011;11438;52.044;8.716;2022-10-17T07:59:58;5.18;;;2.30;;
22543;SDS011;11438;52.044;8.716;2022-10-17T08:02:25;8.60;;;2.80;;
22543;SDS011;11438;52.044;8.716;2022-10-17T08:04:52;4.25;;;2.33;;
22543;SDS011;11438;52.044;8.716;2022-10-17T08:07:18;4.63;;;2.70;;
22543;SDS011;11438;52.044;8.716;2022-10-17T08:09:44;3.67;;;2.60;;
22543;SDS011;11438;52.044;8.716;2022-10-17T08:12:11;3.30;;;2.47;;
22543;SDS011;11438;52.044;8.716;2022-10-17T08:14:38;4.55;;;2.45;;
22543;SDS011;11438;52.044;8.716;2022-10-17T08:17:05;3.53;;;2.38;;
22543;SDS011;11438;52.044;8.716;2022-10-17T08:19:30;3.50;;;2.50;;
22543;SDS011;11438;52.044;8.716;2022-10-17T08:21:56;5.03;;;2.65;;
22543;SDS011;11438;52.044;8.716;2022-10-17T08:24:23;6.60;;;2.85;;
22543;SDS011;11438;52.044;8.716;2022-10-17T08:26:49;2.78;;;2.35;;
22543;SDS011;11438;52.044;8.716;2022-10-17T08:29:15;3.65;;;2.72;;
22543;SDS011;11438;52.044;8.716;2022-10-17T08:31:41;3.65;;;3.20;;
22543;SDS011;11438;52.044;8.716;2022-10-17T08:34:07;3.20;;;2.20;;
22543;SDS011;11438;52.044;8.716;2022-10-17T08:36:32;6.88;;;2.45;;
22543;SDS011;11438;52.044;8.716;2022-10-17T08:38:58;3.95;;;2.50;;
22543;SDS011;11438;52.044;8.716;2022-10-17T08:47:10;3.72;;;2.45;;
22543;SDS011;11438;52.044;8.716;2022-10-17T08:55:02;4.05;;;2.53;;
22543;SDS011;11438;52.044;8.716;2022-10-17T08:57:28;5.85;;;2.78;;
22543;SDS011;11438;52.044;8.716;2022-10-17T08:59:54;4.93;;;2.85;;
22543;SDS011;11438;52.044;8.716;2022-10-17T09:02:32;4.88;;;2.33;;
22543;SDS011;11438;52.044;8.716;2022-10-17T09:05:22;3.17;;;2.35;;
22543;SDS011;11438;52.044;8.716;2022-10-17T09:22:03;3.67;;;2.30;;
22543;SDS011;11438;52.044;8.716;2022-10-17T09:24:53;8.80;;;2.80;;
22543;SDS011;11438;52.044;8.716;2022-10-17T09:33:00;5.20;;;2.28;;
22543;SDS011;11438;52.044;8.716;2022-10-17T09:35:38;5.20;;;2.67;;
22543;SDS011;11438;52.044;8.716;2022-10-17T09:38:06;3.28;;;2.40;;
22543;SDS011;11438;52.044;8.716;2022-10-17T09:40:43;3.95;;;2.55;;
22543;SDS011;11438;52.044;8.716;2022-10-17T09:43:13;5.57;;;2.65;;
22543;SDS011;11438;52.044;8.716;2022-10-17T09:45:45;5.43;;;2.00;;
22543;SDS011;11438;52.044;8.716;2022-10-17T09:48:30;3.00;;;2.08;;
22543;SDS011;11438;52.044;8.716;2022-10-17T09:51:04;4.30;;;2.22;;
22543;SDS011;11438;52.044;8.716;2022-10-17T09:53:33;4.75;;;2.45;;
22543;SDS011;11438;52.044;8.716;2022-10-17T09:56:02;4.22;;;2.30;;
22543;SDS011;11438;52.044;8.716;2022-10-17T10:01:18;4.60;;;2.13;;
22543;SDS011;11438;52.044;8.716;2022-10-17T10:04:07;4.05;;;2.60;;
22543;SDS011;11438;52.044;8.716;2022-10-17T10:06:59;6.10;;;2.67;;
22543;SDS011;11438;52.044;8.716;2022-10-17T10:09:29;3.67;;;2.28;;
22543;SDS011;11438;52.044;8.716;2022-10-17T10:11:57;3.92;;;2.20;;
22543;SDS011;11438;52.044;8.716;2022-10-17T10:14:39;3.97;;;2.30;;
22543;SDS011;11438;52.044;8.716;2022-10-17T10:17:08;5.40;;;2.38;;
22543;SDS011;11438;52.044;8.716;2022-10-17T10:19:51;3.83;;;2.35;;
22543;SDS011;11438;52.044;8.716;2022-10-17T10:22:18;2.80;;;1.98;;
22543;SDS011;11438;52.044;8.716;2022-10-17T10:24:45;4.15;;;2.30;;
22543;SDS011;11438;52.044;8.716;2022-10-17T10:27:31;2.22;;;1.75;;
22543;SDS011;11438;52.044;8.716;2022-10-17T10:29:57;3.10;;;2.00;;
22543;SDS011;11438;52.044;8.716;2022-10-17T10:32:27;3.60;;;1.90;;
22543;SDS011;11438;52.044;8.716;2022-10-17T10:35:02;4.57;;;2.10;;
22543;SDS011;11438;52.044;8.716;2022-10-17T10:37:44;3.30;;;1.77;;
22543;SDS011;11438;52.044;8.716;2022-10-17T10:42:57;5.20;;;3.05;;
22543;SDS011;11438;52.044;8.716;2022-10-17T10:45:25;3.85;;;1.90;;
22543;SDS011;11438;52.044;8.716;2022-10-17T10:47:59;2.70;;;2.15;;
22543;SDS011;11438;52.044;8.716;2022-10-17T10:50:32;1.83;;;1.60;;
22543;SDS011;11438;52.044;8.716;2022-10-17T10:56:16;3.95;;;1.83;;
22543;SDS011;11438;52.044;8.716;2022-10-17T11:01:50;4.15;;;1.63;;
22543;SDS011;11438;52.044;8.716;2022-10-17T11:04:26;4.43;;;1.75;;
22543;SDS011;11438;52.044;8.716;2022-10-17T11:07:08;5.57;;;2.08;;
22543;SDS011;11438;52.044;8.716;2022-10-17T11:15:24;6.45;;;2.20;;
22543;SDS011;11438;52.044;8.716;2022-10-17T11:18:07;5.68;;;2.00;;
22543;SDS011;11438;52.044;8.716;2022-10-17T11:20:55;3.33;;;2.00;;
22543;SDS011;11438;52.044;8.716;2022-10-17T11:26:15;5.72;;;2.13;;
22543;SDS011;11438;52.044;8.716;2022-10-17T11:28:54;2.78;;;1.60;;
22543;SDS011;11438;52.044;8.716;2022-10-17T11:31:21;4.28;;;2.22;;
22543;SDS011;11438;52.044;8.716;2022-10-17T11:36:27;5.53;;;2.00;;
22543;SDS011;11438;52.044;8.716;2022-10-17T11:38:57;4.82;;;1.80;;
22543;SDS011;11438;52.044;8.716;2022-10-17T11:44:40;2.67;;;1.90;;
22543;SDS011;11438;52.044;8.716;2022-10-17T11:49:59;5.05;;;1.95;;
22543;SDS011;11438;52.044;8.716;2022-10-17T11:52:35;2.70;;;1.77;;
22543;SDS011;11438;52.044;8.716;2022-10-17T11:55:26;5.47;;;1.95;;
22543;SDS011;11438;52.044;8.716;2022-10-17T12:03:26;3.08;;;1.88;;
22543;SDS011;11438;52.044;8.716;2022-10-17T12:06:15;3.72;;;2.30;;
22543;SDS011;11438;52.044;8.716;2022-10-17T12:08:57;4.63;;;1.90;;
22543;SDS011;11438;52.044;8.716;2022-10-17T12:22:50;2.30;;;1.83;;
22543;SDS011;11438;52.044;8.716;2022-10-17T12:25:21;5.65;;;2.17;;
22543;SDS011;11438;52.044;8.716;2022-10-17T12:27:50;5.03;;;2.10;;
22543;SDS011;11438;52.044;8.716;2022-10-17T12:30:47;5.63;;;2.50;;
22543;SDS011;11438;52.044;8.716;2022-10-17T12:33:23;4.28;;;2.28;;
22543;SDS011;11438;52.044;8.716;2022-10-17T12:36:36;3.45;;;2.03;;
22543;SDS011;11438;52.044;8.716;2022-10-17T12:38:41;4.18;;;2.17;;
22543;SDS011;11438;52.044;8.716;2022-10-17T12:41:08;3.90;;;1.83;;
22543;SDS011;11438;52.044;8.716;2022-10-17T12:43:42;4.50;;;2.00;;
22543;SDS011;11438;52.044;8.716;2022-10-17T12:46:08;8.10;;;2.30;;
22543;SDS011;11438;52.044;8.716;2022-10-17T12:59:07;3.75;;;2.00;;
22543;SDS011;11438;52.044;8.716;2022-10-17T13:01:36;3.15;;;2.00;;
22543;SDS011;11438;52.044;8.716;2022-10-17T13:04:03;5.22;;;2.28;;
22543;SDS011;11438;52.044;8.716;2022-10-17T13:06:32;2.72;;;1.88;;
22543;SDS011;11438;52.044;8.716;2022-10-17T13:09:06;5.30;;;1.90;;
22543;SDS011;11438;52.044;8.716;2022-10-17T13:11:39;4.25;;;2.22;;
22543;SDS011;11438;52.044;8.716;2022-10-17T13:14:10;3.67;;;2.00;;
22543;SDS011;11438;52.044;8.716;2022-10-17T13:16:39;4.70;;;2.70;;
22543;SDS011;11438;52.044;8.716;2022-10-17T13:19:16;2.70;;;2.08;;
22543;SDS011;11438;52.044;8.716;2022-10-17T13:21:55;3.00;;;2.05;;
22543;SDS011;11438;52.044;8.716;2022-10-17T13:24:38;4.00;;;2.42;;
22543;SDS011;11438;52.044;8.716;2022-10-17T13:27:05;5.15;;;2.05;;
22543;SDS011;11438;52.044;8.716;2022-10-17T13:29:49;5.78;;;2.33;;
22543;SDS011;11438;52.044;8.716;2022-10-17T13:32:14;2.88;;;2.03;;
22543;SDS011;11438;52.044;8.716;2022-10-17T13:34:40;6.78;;;2.00;;
22543;SDS011;11438;52.044;8.716;2022-10-17T13:37:06;3.90;;;1.85;;
22543;SDS011;11438;52.044;8.716;2022-10-17T13:39:40;3.20;;;2.17;;
22543;SDS011;11438;52.044;8.716;2022-10-17T13:42:25;2.85;;;2.17;;
22543;SDS011;11438;52.044;8.716;2022-10-17T13:44:53;3.63;;;2.75;;
22543;SDS011;11438;52.044;8.716;2022-10-17T13:47:23;5.85;;;3.25;;
22543;SDS011;11438;52.044;8.716;2022-10-17T13:49:51;5.72;;;2.55;;
22543;SDS011;11438;52.044;8.716;2022-10-17T13:52:18;4.65;;;2.25;;
22543;SDS011;11438;52.044;8.716;2022-10-17T13:54:47;7.20;;;2.35;;
22543;SDS011;11438;52.044;8.716;2022-10-17T13:57:19;4.55;;;1.90;;
22543;SDS011;11438;52.044;8.716;2022-10-17T13:59:50;6.25;;;2.20;;
22543;SDS011;11438;52.044;8.716;2022-10-17T14:02:26;6.15;;;2.42;;
22543;SDS011;11438;52.044;8.716;2022-10-17T14:07:45;3.17;;;2.05;;
22543;SDS011;11438;52.044;8.716;2022-10-17T14:10:18;2.85;;;1.80;;
22543;SDS011;11438;52.044;8.716;2022-10-17T14:12:56;3.78;;;2.10;;
22543;SDS011;11438;52.044;8.716;2022-10-17T14:15:26;3.42;;;1.90;;
22543;SDS011;11438;52.044;8.716;2022-10-17T14:17:54;4.95;;;2.10;;
22543;SDS011;11438;52.044;8.716;2022-10-17T14:20:22;5.50;;;2.00;;
22543;SDS011;11438;52.044;8.716;2022-10-17T14:22:48;2.42;;;1.88;;
22543;SDS011;11438;52.044;8.716;2022-10-17T14:30:34;5.55;;;2.10;;
22543;SDS011;11438;52.044;8.716;2022-10-17T14:33:04;5.60;;;2.13;;
22543;SDS011;11438;52.044;8.716;2022-10-17T14:35:31;3.90;;;1.80;;
22543;SDS011;11438;52.044;8.716;2022-10-17T14:37:59;2.92;;;2.13;;
22543;SDS011;11438;52.044;8.716;2022-10-17T14:40:28;4.70;;;2.00;;
22543;SDS011;11438;52.044;8.716;2022-10-17T14:42:56;3.92;;;1.85;;
22543;SDS011;11438;52.044;8.716;2022-10-17T14:45:30;2.80;;;1.95;;
22543;SDS011;11438;52.044;8.716;2022-10-17T14:48:02;4.22;;;1.85;;
22543;SDS011;11438;52.044;8.716;2022-10-17T14:50:33;3.55;;;2.20;;
22543;SDS011;11438;52.044;8.716;2022-10-17T14:55:35;4.07;;;2.40;;
22543;SDS011;11438;52.044;8.716;2022-10-17T14:58:18;6.97;;;2.40;;
22543;SDS011;11438;52.044;8.716;2022-10-17T15:00:48;4.55;;;2.67;;
22543;SDS011;11438;52.044;8.716;2022-10-17T15:03:14;4.00;;;2.47;;
22543;SDS011;11438;52.044;8.716;2022-10-17T15:05:39;4.25;;;2.20;;
22543;SDS011;11438;52.044;8.716;2022-10-17T15:08:12;5.53;;;2.30;;
22543;SDS011;11438;52.044;8.716;2022-10-17T15:10:39;4.25;;;2.35;;
22543;SDS011;11438;52.044;8.716;2022-10-17T15:13:06;5.70;;;2.10;;
22543;SDS011;11438;52.044;8.716;2022-10-17T15:15:32;2.95;;;1.98;;
22543;SDS011;11438;52.044;8.716;2022-10-17T15:17:58;3.28;;;2.53;;
22543;SDS011;11438;52.044;8.716;2022-10-17T15:20:24;2.97;;;2.25;;
22543;SDS011;11438;52.044;8.716;2022-10-17T15:22:55;4.47;;;2.17;;
22543;SDS011;11438;52.044;8.716;2022-10-17T15:25:22;3.35;;;1.80;;
22543;SDS011;11438;52.044;8.716;2022-10-17T15:27:49;5.15;;;2.15;;
22543;SDS011;11438;52.044;8.716;2022-10-17T15:32:41;5.63;;;2.00;;
22543;SDS011;11438;52.044;8.716;2022-10-17T15:35:07;3.03;;;1.85;;
22543;SDS011;11438;52.044;8.716;2022-10-17T15:37:33;4.05;;;1.98;;
22543;SDS011;11438;52.044;8.716;2022-10-17T15:39:59;7.88;;;2.40;;
22543;SDS011;11438;52.044;8.716;2022-10-17T15:42:28;4.38;;;2.40;;
22543;SDS011;11438;52.044;8.716;2022-10-17T15:44:54;5.18;;;3.08;;
22543;SDS011;11438;52.044;8.716;2022-10-17T15:47:24;5.07;;;3.10;;
22543;SDS011;11438;52.044;8.716;2022-10-17T15:49:53;6.35;;;3.42;;
22543;SDS011;11438;52.044;8.716;2022-10-17T15:52:19;4.32;;;2.47;;
22543;SDS011;11438;52.044;8.716;2022-10-17T15:54:45;4.00;;;2.55;;
22543;SDS011;11438;52.044;8.716;2022-10-17T15:57:14;6.40;;;2.33;;
22543;SDS011;11438;52.044;8.716;2022-10-17T15:59:45;8.00;;;2.63;;
22543;SDS011;11438;52.044;8.716;2022-10-17T16:02:12;3.53;;;2.22;;
22543;SDS011;11438;52.044;8.716;2022-10-17T16:04:39;5.53;;;2.70;;
22543;SDS011;11438;52.044;8.716;2022-10-17T16:07:05;3.63;;;2.05;;
22543;SDS011;11438;52.044;8.716;2022-10-17T16:09:31;4.03;;;2.35;;
22543;SDS011;11438;52.044;8.716;2022-10-17T16:11:58;4.45;;;2.60;;
22543;SDS011;11438;52.044;8.716;2022-10-17T16:14:25;5.50;;;2.58;;
22543;SDS011;11438;52.044;8.716;2022-10-17T16:16:51;5.57;;;2.55;;
22543;SDS011;11438;52.044;8.716;2022-10-17T16:19:16;4.13;;;2.97;;
22543;SDS011;11438;52.044;8.716;2022-10-17T16:21:42;6.68;;;2.50;;
22543;SDS011;11438;52.044;8.716;2022-10-17T16:24:11;4.60;;;2.60;;
22543;SDS011;11438;52.044;8.716;2022-10-17T16:26:37;3.10;;;2.38;;
22543;SDS011;11438;52.044;8.716;2022-10-17T16:29:04;4.70;;;2.35;;
22543;SDS011;11438;52.044;8.716;2022-10-17T16:31:32;4.82;;;2.00;;
22543;SDS011;11438;52.044;8.716;2022-10-17T16:33:59;3.25;;;2.03;;
22543;SDS011;11438;52.044;8.716;2022-10-17T16:36:26;4.47;;;2.38;;
22543;SDS011;11438;52.044;8.716;2022-10-17T16:38:52;4.53;;;2.00;;
22543;SDS011;11438;52.044;8.716;2022-10-17T16:43:55;4.55;;;2.05;;
22543;SDS011;11438;52.044;8.716;2022-10-17T16:46:22;4.35;;;1.75;;
22543;SDS011;11438;52.044;8.716;2022-10-17T16:48:49;4.50;;;2.22;;
22543;SDS011;11438;52.044;8.716;2022-10-17T16:51:16;4.72;;;2.30;;
22543;SDS011;11438;52.044;8.716;2022-10-17T16:53:43;4.80;;;2.42;;
22543;SDS011;11438;52.044;8.716;2022-10-17T16:56:15;6.95;;;2.88;;
22543;SDS011;11438;52.044;8.716;2022-10-17T16:58:42;3.40;;;2.33;;
22543;SDS011;11438;52.044;8.716;2022-10-17T17:01:19;5.10;;;2.75;;
22543;SDS011;11438;52.044;8.716;2022-10-17T17:03:47;4.03;;;2.50;;
22543;SDS011;11438;52.044;8.716;2022-10-17T17:06:23;5.30;;;2.60;;
22543;SDS011;11438;52.044;8.716;2022-10-17T17:08:50;5.35;;;2.45;;
22543;SDS011;11438;52.044;8.716;2022-10-17T17:11:18;6.82;;;2.88;;